Time;durP1;ratioP1;P1;durP2;ratioP2;P2;SDS_P1;SDS_P2;PMS_P1;PMS_P2;Temp;Humidity;BMP_temperature;BMP_pressure;BME280_temperature;BME280_humidity;BME280_pressure;Samples;Min_cycle;Max_cycle;Signal;HPM_P1;HPM_P2
2022/08/07 00:01:09;;;;;;;;;;;;;;;;;;5034757;28;19924;-87
2022/08/07 00:03:34;;;;;;;;;;;;;;;;;;5034571;28;19917;-87
2022/08/07 00:06:00;;;;;;;;;;;;;;;;;;5034851;28;19917;-87
2022/08/07 00:08:26;;;;;;;;;;;;;;;;;;5033209;28;19952;-89
2022/08/07 00:10:53;;;;;;;;;;;;;;;;;;5049727;28;20059;-86
2022/08/07 00:13:19;;;;;;;;;;;;;;;;;;5037381;28;19917;-88
2022/08/07 00:15:44;;;;;;;;;;;;;;;;;;5054416;28;19920;-87
2022/08/07 00:18:10;;;;;;;;;;;;;;;;;;5053712;28;19917;-88
2022/08/07 00:20:36;;;;;;;;;;;;;;;;;;5053821;28;19963;-88
2022/08/07 00:23:04;;;;;;;;;;;;;;;;;;5052859;28;19967;-87
2022/08/07 00:25:30;;;;;;;;;;;;;;;;;;5054200;28;19917;-88
2022/08/07 00:27:55;;;;;;;;;;;;;;;;;;5053799;28;20380;-87
2022/08/07 00:30:21;;;;;;;;;;;;;;;;;;5054019;28;20430;-88
2022/08/07 00:32:48;;;;;;;;;;;;;;;;;;5052460;28;19917;-87
2022/08/07 00:35:13;;;;;;;;;;;;;;;;;;5053977;28;19944;-88
2022/08/07 00:37:38;;;;;;;;;;;;;;;;;;5054106;28;20376;-87
2022/08/07 00:40:04;;;;;;;;;;;;;;;;;;5053952;28;20288;-88
2022/08/07 00:42:31;;;;;;;;;;;;;;;;;;5054051;28;19917;-88
2022/08/07 00:44:56;;;;;;;;;;;;;;;;;;5053926;28;19917;-88
2022/08/07 00:47:23;;;;;;;;;;;;;;;;;;5052615;28;19917;-90
2022/08/07 00:49:48;;;;;;;;;;;;;;;;;;5053706;28;19917;-86
2022/08/07 00:52:13;;;;;;;;;;;;;;;;;;5053200;28;19917;-88
2022/08/07 00:54:39;;;;;;;;;;;;;;;;;;5032471;28;19918;-87
2022/08/07 00:57:05;;;;;;;;;;;;;;;;;;5033769;28;19913;-88
2022/08/07 00:59:31;;;;;;;;;;;;;;;;;;5033595;28;19940;-87
2022/08/07 01:01:57;;;;;;;;;;;;;;;;;;5033725;28;20357;-88
2022/08/07 01:04:22;;;;;;;;;;;;;;;;;;5033718;28;19921;-87
2022/08/07 01:06:48;;;;;;;;;;;;;;;;;;5033565;28;20429;-87
2022/08/07 01:09:13;;;;;;;;;;;;;;;;;;5033578;28;19917;-88
2022/08/07 01:11:39;;;;;;;;;;;;;;;;;;5048762;28;19923;-88
2022/08/07 01:14:06;;;;;;;;;;;;;;;;;;5033415;28;20327;-89
2022/08/07 01:16:31;;;;;;;;;;;;;;;;;;5048760;28;19967;-88
2022/08/07 01:18:57;;;;;;;;;;;;;;;;;;5033738;28;19920;-87
2022/08/07 01:21:25;;;;;;;;;;;;;;;;;;5033425;28;19923;-87
2022/08/07 01:23:52;;;;;;;;;;;;;;;;;;5033546;28;19917;-88
2022/08/07 01:26:19;;;;;;;;;;;;;;;;;;5048832;28;19928;-86
2022/08/07 01:28:48;;;;;;;;;;;;;;;;;;5048585;28;19982;-87
2022/08/07 01:31:18;;;;;;;;;;;;;;;;;;5036972;28;20296;-88
2022/08/07 01:33:44;;;;;;;;;;;;;;;;;;5052461;28;19964;-87
2022/08/07 01:36:10;;;;;;;;;;;;;;;;;;5037100;28;19921;-87
2022/08/07 01:38:37;;;;;;;;;;;;;;;;;;5052511;28;19926;-87
2022/08/07 01:41:03;;;;;;;;;;;;;;;;;;5037343;28;20276;-88
2022/08/07 01:43:29;;;;;;;;;;;;;;;;;;5035737;28;20016;-88
2022/08/07 01:45:55;;;;;;;;;;;;;;;;;;5036967;28;19917;-87
2022/08/07 01:48:21;;;;;;;;;;;;;;;;;;5037037;28;20423;-87
2022/08/07 01:50:49;;;;;;;;;;;;;;;;;;5036797;28;19921;-88
2022/08/07 01:53:15;;;;;;;;;;;;;;;;;;5036604;28;20414;-89
2022/08/07 01:55:44;;;;;;;;;;;;;;;;;;5036745;28;19921;-87
2022/08/07 01:58:12;;;;;;;;;;;;;;;;;;5035555;28;20323;-87
2022/08/07 02:00:39;;;;;;;;;;;;;;;;;;5035374;28;19925;-87
2022/08/07 02:03:10;;;;;;;;;;;;;;;;;;5036569;28;19917;-88
2022/08/07 02:05:41;;;;;;;;;;;;;;;;;;5036520;28;19924;-87
2022/08/07 02:08:09;;;;;;;;;;;;;;;;;;5051881;28;19917;-87
2022/08/07 02:10:36;;;;;;;;;;;;;;;;;;5036415;28;19921;-89
2022/08/07 02:13:02;;;;;;;;;;;;;;;;;;5051609;28;19917;-88
2022/08/07 02:15:27;;;;;;;;;;;;;;;;;;5036447;28;20004;-88
2022/08/07 02:17:54;;;;;;;;;;;;;;;;;;5036380;28;20024;-87
2022/08/07 02:20:21;;;;;;;;;;;;;;;;;;5036331;28;19918;-87
2022/08/07 02:22:47;;;;;;;;;;;;;;;;;;5036183;28;20008;-88
2022/08/07 02:25:14;;;;;;;;;;;;;;;;;;5034966;28;19924;-88
2022/08/07 02:27:41;;;;;;;;;;;;;;;;;;5035955;28;19921;-89
2022/08/07 02:30:06;;;;;;;;;;;;;;;;;;5036404;28;19953;-87
2022/08/07 02:32:32;;;;;;;;;;;;;;;;;;5035878;28;20284;-88
2022/08/07 02:34:58;;;;;;;;;;;;;;;;;;5035887;28;19927;-87
2022/08/07 02:37:25;;;;;;;;;;;;;;;;;;5036034;28;19921;-88
2022/08/07 02:39:51;;;;;;;;;;;;;;;;;;5035669;28;19917;-88
2022/08/07 02:42:17;;;;;;;;;;;;;;;;;;5034498;28;20277;-88
2022/08/07 02:44:43;;;;;;;;;;;;;;;;;;5035744;28;19924;-87
2022/08/07 02:47:09;;;;;;;;;;;;;;;;;;5035717;28;20293;-87
2022/08/07 02:49:35;;;;;;;;;;;;;;;;;;5051146;28;19917;-88
2022/08/07 02:52:02;;;;;;;;;;;;;;;;;;5035545;28;19917;-87
2022/08/07 02:54:28;;;;;;;;;;;;;;;;;;5035430;28;19917;-88
2022/08/07 02:56:55;;;;;;;;;;;;;;;;;;5035628;28;19967;-90
2022/08/07 02:59:23;;;;;;;;;;;;;;;;;;5051004;28;19917;-88
2022/08/07 03:01:48;;;;;;;;;;;;;;;;;;5051099;28;19917;-87
2022/08/07 03:04:15;;;;;;;;;;;;;;;;;;5052131;28;19962;-90
2022/08/07 03:06:41;;;;;;;;;;;;;;;;;;5061231;28;19924;-87
2022/08/07 03:09:08;;;;;;;;;;;;;;;;;;5069238;28;19921;-90
2022/08/07 03:11:34;;;;;;;;;;;;;;;;;;5068931;28;19925;-87
2022/08/07 03:14:03;;;;;;;;;;;;;;;;;;5062487;28;19917;-88
2022/08/07 03:16:32;;;;;;;;;;;;;;;;;;5059923;28;19920;-88
2022/08/07 03:18:58;;;;;;;;;;;;;;;;;;5055278;28;19916;-88
2022/08/07 03:21:24;;;;;;;;;;;;;;;;;;5055588;28;20422;-88
2022/08/07 03:23:53;;;;;;;;;;;;;;;;;;5055219;28;20285;-88
2022/08/07 03:26:19;;;;;;;;;;;;;;;;;;5055026;28;19956;-87
2022/08/07 03:28:47;;;;;;;;;;;;;;;;;;5054764;28;19928;-87
2022/08/07 03:31:18;;;;;;;;;;;;;;;;;;5054774;28;20369;-89
2022/08/07 03:33:46;;;;;;;;;;;;;;;;;;5054719;28;19920;-88
2022/08/07 03:36:13;;;;;;;;;;;;;;;;;;5053554;28;19932;-88
2022/08/07 03:38:39;;;;;;;;;;;;;;;;;;5054757;28;20374;-88
2022/08/07 03:41:04;;;;;;;;;;;;;;;;;;5054764;28;19917;-87
2022/08/07 03:43:30;;;;;;;;;;;;;;;;;;5053535;28;19920;-89
2022/08/07 03:45:55;;;;;;;;;;;;;;;;;;5054859;28;19952;-88
2022/08/07 03:48:21;;;;;;;;;;;;;;;;;;5054724;28;19962;-87
2022/08/07 03:50:47;;;;;;;;;;;;;;;;;;5054517;28;19923;-89
2022/08/07 03:53:13;;;;;;;;;;;;;;;;;;5053765;28;20346;-87
2022/08/07 03:55:39;;;;;;;;;;;;;;;;;;5054868;28;19960;-88
2022/08/07 03:58:05;;;;;;;;;;;;;;;;;;5054725;28;19956;-89
2022/08/07 04:00:31;;;;;;;;;;;;;;;;;;5054693;28;20343;-89
2022/08/07 04:02:57;;;;;;;;;;;;;;;;;;5054405;28;19916;-88
2022/08/07 04:05:23;;;;;;;;;;;;;;;;;;5054153;28;19990;-88
2022/08/07 04:07:49;;;;;;;;;;;;;;;;;;5054466;28;20319;-87
2022/08/07 04:10:15;;;;;;;;;;;;;;;;;;5054788;28;20265;-87
2022/08/07 04:12:41;;;;;;;;;;;;;;;;;;5054233;28;20012;-88
2022/08/07 04:15:06;;;;;;;;;;;;;;;;;;5052794;28;19920;-88
2022/08/07 04:17:32;;;;;;;;;;;;;;;;;;5054214;28;19912;-88
2022/08/07 04:19:58;;;;;;;;;;;;;;;;;;5050672;28;19917;-88
2022/08/07 04:22:24;;;;;;;;;;;;;;;;;;5042561;28;19928;-87
2022/08/07 04:24:49;;;;;;;;;;;;;;;;;;5044185;28;20285;-88
2022/08/07 04:27:16;;;;;;;;;;;;;;;;;;5043919;28;19948;-89
2022/08/07 04:29:44;;;;;;;;;;;;;;;;;;5045168;28;20003;-87
2022/08/07 04:32:10;;;;;;;;;;;;;;;;;;5045263;28;20365;-88
2022/08/07 04:34:36;;;;;;;;;;;;;;;;;;5044885;28;19918;-91
2022/08/07 04:37:01;;;;;;;;;;;;;;;;;;5040793;28;19921;-88
2022/08/07 04:39:28;;;;;;;;;;;;;;;;;;5044296;28;19918;-89
2022/08/07 04:41:53;;;;;;;;;;;;;;;;;;5032439;28;19923;-88
2022/08/07 04:44:18;;;;;;;;;;;;;;;;;;5033873;28;19917;-87
2022/08/07 04:46:46;;;;;;;;;;;;;;;;;;5033846;28;20258;-87
2022/08/07 04:49:30;;;;;;;;;;;;;;;;;;5033694;28;19921;-88
2022/08/07 04:51:56;;;;;;;;;;;;;;;;;;5033659;28;20004;-86
2022/08/07 04:54:25;;;;;;;;;;;;;;;;;;5033590;28;19949;-89
2022/08/07 04:56:54;;;;;;;;;;;;;;;;;;5037998;28;19952;-89
2022/08/07 04:59:38;;;;;;;;;;;;;;;;;;5053038;28;19913;-88
2022/08/07 05:02:10;;;;;;;;;;;;;;;;;;5044207;28;20277;-90
2022/08/07 05:04:45;;;;;;;;;;;;;;;;;;5045167;28;20007;-87
2022/08/07 05:07:36;;;;;;;;;;;;;;;;;;5044537;28;19975;-88
2022/08/07 05:10:10;;;;;;;;;;;;;;;;;;5040007;28;19913;-90
2022/08/07 05:12:51;;;;;;;;;;;;;;;;;;5036261;28;19917;-89
2022/08/07 05:15:23;;;;;;;;;;;;;;;;;;5037497;28;20004;-90
2022/08/07 05:17:51;;;;;;;;;;;;;;;;;;5051322;28;20479;-90
2022/08/07 05:20:22;;;;;;;;;;;;;;;;;;5056110;28;19924;-89
2022/08/07 05:22:49;;;;;;;;;;;;;;;;;;5057321;28;19916;-90
2022/08/07 05:25:15;;;;;;;;;;;;;;;;;;5057203;28;20027;-88
2022/08/07 05:27:42;;;;;;;;;;;;;;;;;;5057022;28;19943;-90
2022/08/07 05:30:08;;;;;;;;;;;;;;;;;;5055833;28;20019;-89
2022/08/07 05:32:34;;;;;;;;;;;;;;;;;;5045589;28;20063;-90
2022/08/07 05:35:00;;;;;;;;;;;;;;;;;;5042926;28;19925;-90
2022/08/07 05:37:25;;;;;;;;;;;;;;;;;;5041630;28;19975;-89
2022/08/07 05:39:51;;;;;;;;;;;;;;;;;;5044213;28;19924;-89
2022/08/07 05:42:16;;;;;;;;;;;;;;;;;;5053538;28;20003;-88
2022/08/07 05:44:42;;;;;;;;;;;;;;;;;;5056732;28;19917;-88
2022/08/07 05:47:08;;;;;;;;;;;;;;;;;;5056889;28;19924;-89
2022/08/07 05:49:33;;;;;;;;;;;;;;;;;;5056787;28;20009;-88
2022/08/07 05:51:59;;;;;;;;;;;;;;;;;;5056302;28;20012;-89
2022/08/07 05:54:24;;;;;;;;;;;;;;;;;;5056586;28;19921;-89
2022/08/07 05:56:50;;;;;;;;;;;;;;;;;;5056753;28;19921;-87
2022/08/07 05:59:17;;;;;;;;;;;;;;;;;;5056080;28;19970;-90
2022/08/07 06:01:44;;;;;;;;;;;;;;;;;;5045633;28;19917;-88
2022/08/07 06:04:09;;;;;;;;;;;;;;;;;;5044001;28;19971;-91
2022/08/07 06:06:35;;;;;;;;;;;;;;;;;;5052112;28;19917;-89
2022/08/07 06:09:01;;;;;;;;;;;;;;;;;;5056754;28;20000;-89
2022/08/07 06:11:27;;;;;;;;;;;;;;;;;;5056390;28;19959;-90
2022/08/07 06:13:52;;;;;;;;;;;;;;;;;;5056583;28;19917;-91
2022/08/07 06:16:19;;;;;;;;;;;;;;;;;;5055372;28;20414;-91
2022/08/07 06:18:45;;;;;;;;;;;;;;;;;;5058116;28;20043;-91
2022/08/07 06:21:11;;;;;;;;;;;;;;;;;;5056671;28;20265;-91
2022/08/07 06:23:43;;;;;;;;;;;;;;;;;;5058857;28;20026;-89
2022/08/07 06:26:11;;;;;;;;;;;;;;;;;;5056476;28;20399;-89
2022/08/07 06:28:47;;;;;;;;;;;;;;;;;;5056133;28;20395;-89
2022/08/07 06:31:12;;;;;;;;;;;;;;;;;;5056221;28;19917;-89
2022/08/07 06:33:38;;;;;;;;;;;;;;;;;;5056306;28;19924;-88
2022/08/07 06:36:03;;;;;;;;;;;;;;;;;;5055778;28;19947;-90
2022/08/07 06:38:29;;;;;;;;;;;;;;;;;;5055909;28;19920;-88
2022/08/07 06:40:56;;;;;;;;;;;;;;;;;;5056245;28;19916;-87
2022/08/07 06:43:23;;;;;;;;;;;;;;;;;;5055974;28;20011;-88
2022/08/07 06:45:48;;;;;;;;;;;;;;;;;;5055874;28;19917;-87
2022/08/07 06:48:14;;;;;;;;;;;;;;;;;;5055738;28;19928;-89
2022/08/07 06:50:40;;;;;;;;;;;;;;;;;;5046528;28;19916;-87
2022/08/07 06:53:07;;;;;;;;;;;;;;;;;;5041145;28;20254;-87
2022/08/07 06:55:33;;;;;;;;;;;;;;;;;;5035654;28;19917;-89
2022/08/07 06:58:00;;;;;;;;;;;;;;;;;;5035536;28;19960;-90
2022/08/07 07:00:27;;;;;;;;;;;;;;;;;;5035701;28;19921;-89
2022/08/07 07:02:53;;;;;;;;;;;;;;;;;;5035664;28;19972;-87
2022/08/07 07:05:22;;;;;;;;;;;;;;;;;;5034081;28;19917;-87
2022/08/07 07:07:47;;;;;;;;;;;;;;;;;;5035522;28;20039;-87
2022/08/07 07:10:13;;;;;;;;;;;;;;;;;;5041327;28;19994;-87
2022/08/07 07:12:54;;;;;;;;;;;;;;;;;;5056094;28;19928;-89
2022/08/07 07:15:27;;;;;;;;;;;;;;;;;;5051617;28;19925;-90
2022/08/07 07:18:11;;;;;;;;;;;;;;;;;;5056230;28;19925;-90
2022/08/07 07:20:40;;;;;;;;;;;;;;;;;;5066615;28;19924;-88
2022/08/07 07:23:06;;;;;;;;;;;;;;;;;;5058631;28;19943;-89
2022/08/07 07:25:33;;;;;;;;;;;;;;;;;;5055805;28;20391;-88
2022/08/07 07:28:18;;;;;;;;;;;;;;;;;;5035204;28;20452;-89
2022/08/07 07:30:49;;;;;;;;;;;;;;;;;;5035754;28;20343;-89
2022/08/07 07:33:16;;;;;;;;;;;;;;;;;;5038411;28;19917;-90
2022/08/07 07:35:42;;;;;;;;;;;;;;;;;;5033523;28;19924;-88
2022/08/07 07:38:08;;;;;;;;;;;;;;;;;;5034759;28;20015;-90
2022/08/07 07:40:36;;;;;;;;;;;;;;;;;;5042428;28;19970;-88
2022/08/07 07:43:04;;;;;;;;;;;;;;;;;;5054830;28;19924;-86
2022/08/07 07:45:30;;;;;;;;;;;;;;;;;;5053435;28;19916;-89
2022/08/07 07:47:56;;;;;;;;;;;;;;;;;;5053383;28;19924;-89
2022/08/07 07:50:22;;;;;;;;;;;;;;;;;;5054458;28;19924;-87
2022/08/07 07:52:48;;;;;;;;;;;;;;;;;;5054440;28;19923;-88
2022/08/07 07:55:16;;;;;;;;;;;;;;;;;;5054699;28;19921;-87
2022/08/07 07:57:42;;;;;;;;;;;;;;;;;;5053355;28;20280;-88
2022/08/07 08:00:08;;;;;;;;;;;;;;;;;;5052990;28;19996;-88
2022/08/07 08:02:34;;;;;;;;;;;;;;;;;;5036219;28;20024;-89
2022/08/07 08:05:02;;;;;;;;;;;;;;;;;;5034219;28;20342;-90
2022/08/07 08:07:28;;;;;;;;;;;;;;;;;;5034271;28;20365;-87
2022/08/07 08:09:54;;;;;;;;;;;;;;;;;;5032928;28;20360;-89
2022/08/07 08:12:20;;;;;;;;;;;;;;;;;;5034031;28;19917;-89
2022/08/07 08:14:45;;;;;;;;;;;;;;;;;;5037756;28;19921;-87
2022/08/07 08:17:12;;;;;;;;;;;;;;;;;;5040493;28;20284;-88
2022/08/07 08:19:38;;;;;;;;;;;;;;;;;;5034021;28;19928;-87
2022/08/07 08:27:35;;;;;;;;;;;;;;;;;;5033884;28;19971;-89
2022/08/07 08:30:08;;;;;;;;;;;;;;;;;;5032678;28;19917;-88
2022/08/07 08:32:46;;;;;;;;;;;;;;;;;;5031188;28;19928;-89
2022/08/07 08:35:15;;;;;;;;;;;;;;;;;;5032688;28;19967;-89
2022/08/07 08:37:42;;;;;;;;;;;;;;;;;;5032868;28;19960;-88
2022/08/07 08:40:17;;;;;;;;;;;;;;;;;;5032397;28;19918;-88
2022/08/07 08:42:51;;;;;;;;;;;;;;;;;;5033125;28;19918;-90
2022/08/07 08:45:25;;;;;;;;;;;;;;;;;;5033413;28;19986;-88
2022/08/07 08:47:57;;;;;;;;;;;;;;;;;;5033290;28;19917;-88
2022/08/07 08:50:26;;;;;;;;;;;;;;;;;;5046915;28;19979;-88
2022/08/07 08:53:00;;;;;;;;;;;;;;;;;;5053274;28;20399;-88
2022/08/07 08:55:34;;;;;;;;;;;;;;;;;;5053419;28;19928;-88
2022/08/07 08:58:05;;;;;;;;;;;;;;;;;;5046165;28;20288;-88
2022/08/07 09:00:34;;;;;;;;;;;;;;;;;;5044672;28;19921;-89
2022/08/07 09:03:09;;;;;;;;;;;;;;;;;;5046460;28;19952;-91
2022/08/07 09:05:50;;;;;;;;;;;;;;;;;;5052389;28;20365;-89
2022/08/07 09:08:34;;;;;;;;;;;;;;;;;;5053542;28;20388;-89
2022/08/07 09:10:59;;;;;;;;;;;;;;;;;;5053448;28;19999;-90
2022/08/07 09:13:40;;;;;;;;;;;;;;;;;;5053609;28;20011;-88
2022/08/07 09:16:18;;;;;;;;;;;;;;;;;;5053837;28;19916;-89
2022/08/07 09:19:02;;;;;;;;;;;;;;;;;;5057183;28;20411;-91
2022/08/07 09:21:30;;;;;;;;;;;;;;;;;;5058361;28;20388;-91
2022/08/07 09:24:02;;;;;;;;;;;;;;;;;;5060848;28;19917;-92
2022/08/07 09:26:36;;;;;;;;;;;;;;;;;;5054592;28;20391;-93
2022/08/07 09:29:21;;;;;;;;;;;;;;;;;;5055663;28;19921;-92
2022/08/07 09:31:47;;;;;;;;;;;;;;;;;;5053482;28;19916;-90
2022/08/07 09:34:20;;;;;;;;;;;;;;;;;;5052300;28;19923;-91
2022/08/07 09:36:59;;;;;;;;;;;;;;;;;;5053641;28;20376;-93
2022/08/07 09:39:45;;;;;;;;;;;;;;;;;;5053690;28;20352;-92
2022/08/07 09:42:11;;;;;;;;;;;;;;;;;;5053903;28;19913;-89
2022/08/07 09:44:45;;;;;;;;;;;;;;;;;;5053551;28;20027;-92
2022/08/07 09:47:30;;;;;;;;;;;;;;;;;;5049713;28;19960;-91
2022/08/07 09:50:02;;;;;;;;;;;;;;;;;;5052624;28;19917;-92
2022/08/07 09:52:31;;;;;;;;;;;;;;;;;;5056841;28;19917;-91
2022/08/07 09:55:05;;;;;;;;;;;;;;;;;;5056829;28;19917;-88
2022/08/07 09:57:49;;;;;;;;;;;;;;;;;;5056712;28;19917;-91
2022/08/07 10:00:16;;;;;;;;;;;;;;;;;;5056960;28;19917;-90
2022/08/07 10:02:55;;;;;;;;;;;;;;;;;;5056610;28;19917;-90
2022/08/07 10:05:39;;;;;;;;;;;;;;;;;;5056410;28;20315;-91
2022/08/07 10:08:31;;;;;;;;;;;;;;;;;;5056542;28;20283;-91
2022/08/07 10:11:01;;;;;;;;;;;;;;;;;;5036187;28;20273;-92
2022/08/07 10:13:36;;;;;;;;;;;;;;;;;;5057929;28;19916;-92
2022/08/07 10:16:07;;;;;;;;;;;;;;;;;;5057888;28;19917;-92
2022/08/07 10:18:38;;;;;;;;;;;;;;;;;;5056966;28;19916;-92
2022/08/07 10:21:22;;;;;;;;;;;;;;;;;;5058824;28;19939;-91
2022/08/07 10:24:01;;;;;;;;;;;;;;;;;;5059624;28;20349;-90
2022/08/07 10:26:29;;;;;;;;;;;;;;;;;;5062234;28;19986;-92
2022/08/07 10:28:55;;;;;;;;;;;;;;;;;;5057543;28;20004;-92
2022/08/07 10:31:29;;;;;;;;;;;;;;;;;;5059812;28;20372;-92
2022/08/07 10:33:55;;;;;;;;;;;;;;;;;;5057758;28;19960;-89
2022/08/07 10:36:39;;;;;;;;;;;;;;;;;;5056932;28;19964;-90
2022/08/07 10:39:31;;;;;;;;;;;;;;;;;;5056224;28;20376;-90
2022/08/07 10:42:14;;;;;;;;;;;;;;;;;;5025895;28;20321;-91
2022/08/07 10:44:44;;;;;;;;;;;;;;;;;;5056283;28;19917;-91
2022/08/07 10:47:23;;;;;;;;;;;;;;;;;;5061232;28;19917;-88
2022/08/07 10:50:07;;;;;;;;;;;;;;;;;;5058335;28;20234;-90
2022/08/07 10:52:36;;;;;;;;;;;;;;;;;;5057863;28;19938;-90
2022/08/07 10:55:11;;;;;;;;;;;;;;;;;;5058676;28;20058;-91
2022/08/07 10:58:03;;;;;;;;;;;;;;;;;;5056963;28;19924;-89
2022/08/07 11:00:35;;;;;;;;;;;;;;;;;;5056859;28;19923;-91
2022/08/07 11:03:27;;;;;;;;;;;;;;;;;;5057229;28;19917;-93
2022/08/07 11:06:12;;;;;;;;;;;;;;;;;;5026024;28;20006;-93
2022/08/07 11:08:56;;;;;;;;;;;;;;;;;;5057585;28;19917;-91
2022/08/07 11:11:28;;;;;;;;;;;;;;;;;;5055987;28;20387;-93
2022/08/07 11:13:58;;;;;;;;;;;;;;;;;;5064604;28;19912;-91
2022/08/07 11:16:30;;;;;;;;;;;;;;;;;;5076524;28;19917;-89
2022/08/07 11:19:05;;;;;;;;;;;;;;;;;;5074482;28;19917;-90
2022/08/07 11:21:39;;;;;;;;;;;;;;;;;;5062418;28;19913;-90
2022/08/07 11:24:39;;;;;;;;;;;;;;;;;;5055259;28;19927;-88
2022/08/07 11:27:05;;;;;;;;;;;;;;;;;;5013468;28;20334;-88
2022/08/07 11:29:30;;;;;;;;;;;;;;;;;;5046467;28;19917;-90
2022/08/07 11:32:07;;;;;;;;;;;;;;;;;;5054745;28;19916;-88
2022/08/07 11:34:32;;;;;;;;;;;;;;;;;;5053675;28;19917;-89
2022/08/07 11:37:05;;;;;;;;;;;;;;;;;;5053834;28;20015;-88
2022/08/07 11:39:49;;;;;;;;;;;;;;;;;;5054259;28;20280;-90
2022/08/07 11:42:25;;;;;;;;;;;;;;;;;;5054072;28;19948;-90
2022/08/07 11:44:54;;;;;;;;;;;;;;;;;;5053542;28;19920;-91
2022/08/07 11:47:28;;;;;;;;;;;;;;;;;;5054085;28;19978;-88
2022/08/07 11:50:02;;;;;;;;;;;;;;;;;;5054873;28;20471;-90
2022/08/07 11:52:41;;;;;;;;;;;;;;;;;;5053320;28;19917;-88
2022/08/07 11:55:32;;;;;;;;;;;;;;;;;;5054731;28;20284;-88
2022/08/07 11:58:20;;;;;;;;;;;;;;;;;;5053686;28;19921;-90
2022/08/07 12:01:12;;;;;;;;;;;;;;;;;;5054506;28;20435;-89
2022/08/07 12:03:45;;;;;;;;;;;;;;;;;;5052588;28;20588;-88
2022/08/07 12:06:11;;;;;;;;;;;;;;;;;;5053211;28;19923;-90
2022/08/07 12:08:39;;;;;;;;;;;;;;;;;;5049486;28;20063;-90
2022/08/07 12:11:04;;;;;;;;;;;;;;;;;;5054172;28;20015;-91
2022/08/07 12:13:45;;;;;;;;;;;;;;;;;;5054021;28;20009;-90
2022/08/07 12:16:15;;;;;;;;;;;;;;;;;;5054944;28;19917;-89
2022/08/07 12:18:46;;;;;;;;;;;;;;;;;;5058363;28;19917;-90
2022/08/07 12:21:30;;;;;;;;;;;;;;;;;;5057173;28;19924;-90
2022/08/07 12:24:01;;;;;;;;;;;;;;;;;;5058581;28;20412;-90
2022/08/07 12:26:46;;;;;;;;;;;;;;;;;;5056147;28;19917;-89
2022/08/07 12:29:20;;;;;;;;;;;;;;;;;;5056762;28;19947;-91
2022/08/07 12:31:52;;;;;;;;;;;;;;;;;;5057217;28;19916;-92
2022/08/07 12:34:18;;;;;;;;;;;;;;;;;;5058049;28;19963;-90
2022/08/07 12:36:45;;;;;;;;;;;;;;;;;;5056805;28;20300;-89
2022/08/07 12:39:12;;;;;;;;;;;;;;;;;;5058268;28;19916;-92
2022/08/07 12:41:42;;;;;;;;;;;;;;;;;;5059182;28;19922;-88
2022/08/07 12:44:13;;;;;;;;;;;;;;;;;;5055816;28;21410;-90
2022/08/07 12:46:57;;;;;;;;;;;;;;;;;;5057600;28;19924;-91
2022/08/07 12:49:23;;;;;;;;;;;;;;;;;;5058224;28;19917;-88
2022/08/07 12:52:04;;;;;;;;;;;;;;;;;;5058519;28;20284;-90
2022/08/07 12:54:40;;;;;;;;;;;;;;;;;;5057567;28;20008;-90
2022/08/07 12:57:06;;;;;;;;;;;;;;;;;;5057182;28;20007;-89
2022/08/07 12:59:34;;;;;;;;;;;;;;;;;;5057469;28;19917;-89
2022/08/07 13:02:12;;;;;;;;;;;;;;;;;;5056703;28;19924;-88
2022/08/07 13:04:46;;;;;;;;;;;;;;;;;;5058698;28;19952;-91
2022/08/07 13:07:32;;;;;;;;;;;;;;;;;;5055663;28;19917;-90
2022/08/07 13:10:16;;;;;;;;;;;;;;;;;;5025878;28;20364;-88
2022/08/07 13:12:53;;;;;;;;;;;;;;;;;;5058326;28;19925;-90
2022/08/07 13:15:52;;;;;;;;;;;;;;;;;;5056667;28;20030;-89
2022/08/07 13:18:29;;;;;;;;;;;;;;;;;;5025958;28;19916;-88
2022/08/07 13:21:06;;;;;;;;;;;;;;;;;;5058987;28;19925;-91
2022/08/07 13:23:51;;;;;;;;;;;;;;;;;;5055598;28;19921;-90
2022/08/07 13:26:19;;;;;;;;;;;;;;;;;;5060914;28;19917;-90
2022/08/07 13:28:47;;;;;;;;;;;;;;;;;;5061129;28;19931;-88
2022/08/07 13:31:27;;;;;;;;;;;;;;;;;;5059892;28;20375;-89
2022/08/07 13:34:10;;;;;;;;;;;;;;;;;;5061297;28;19921;-89
2022/08/07 13:36:56;;;;;;;;;;;;;;;;;;5061671;28;19917;-88
2022/08/07 13:39:40;;;;;;;;;;;;;;;;;;5058934;28;19923;-90
2022/08/07 13:42:09;;;;;;;;;;;;;;;;;;5060778;28;20008;-90
2022/08/07 13:44:36;;;;;;;;;;;;;;;;;;5062531;28;19921;-89
2022/08/07 13:47:02;;;;;;;;;;;;;;;;;;5063307;28;19924;-92
2022/08/07 13:49:32;;;;;;;;;;;;;;;;;;5062274;28;20364;-89
2022/08/07 13:52:01;;;;;;;;;;;;;;;;;;5062967;28;19991;-90
2022/08/07 13:54:32;;;;;;;;;;;;;;;;;;5063496;28;20376;-90
2022/08/07 13:56:59;;;;;;;;;;;;;;;;;;5062281;28;19924;-91
2022/08/07 13:59:26;;;;;;;;;;;;;;;;;;5064109;28;19921;-90
2022/08/07 14:01:53;;;;;;;;;;;;;;;;;;5060455;28;19917;-92
2022/08/07 14:04:19;;;;;;;;;;;;;;;;;;5059637;28;19916;-89
2022/08/07 14:06:46;;;;;;;;;;;;;;;;;;5059113;28;19940;-90
2022/08/07 14:09:19;;;;;;;;;;;;;;;;;;5059475;28;20011;-91
2022/08/07 14:11:47;;;;;;;;;;;;;;;;;;5058915;28;19920;-91
2022/08/07 14:14:14;;;;;;;;;;;;;;;;;;5059057;28;19916;-91
2022/08/07 14:16:42;;;;;;;;;;;;;;;;;;5059225;28;19923;-89
2022/08/07 14:19:15;;;;;;;;;;;;;;;;;;5059249;28;19948;-89
2022/08/07 14:21:44;;;;;;;;;;;;;;;;;;5058633;28;19962;-91
2022/08/07 14:24:18;;;;;;;;;;;;;;;;;;5057785;28;20015;-90
2022/08/07 14:26:49;;;;;;;;;;;;;;;;;;5058138;28;20017;-90
2022/08/07 14:29:17;;;;;;;;;;;;;;;;;;5061953;28;19925;-90
2022/08/07 14:31:45;;;;;;;;;;;;;;;;;;5060114;28;20303;-88
2022/08/07 14:34:13;;;;;;;;;;;;;;;;;;5057021;28;19955;-87
2022/08/07 14:36:39;;;;;;;;;;;;;;;;;;5056875;28;19913;-88
2022/08/07 14:39:05;;;;;;;;;;;;;;;;;;5059363;28;19944;-88
2022/08/07 14:41:31;;;;;;;;;;;;;;;;;;5058063;28;19917;-89
2022/08/07 14:43:58;;;;;;;;;;;;;;;;;;5058023;28;19944;-88
2022/08/07 14:46:24;;;;;;;;;;;;;;;;;;5058399;28;19943;-88
2022/08/07 14:48:50;;;;;;;;;;;;;;;;;;5057047;28;19912;-92
2022/08/07 14:51:21;;;;;;;;;;;;;;;;;;5058195;28;19960;-90
2022/08/07 14:53:48;;;;;;;;;;;;;;;;;;5055641;28;19917;-89
2022/08/07 14:56:17;;;;;;;;;;;;;;;;;;5054617;28;19919;-92
2022/08/07 14:58:46;;;;;;;;;;;;;;;;;;5055295;28;19917;-89
2022/08/07 15:01:14;;;;;;;;;;;;;;;;;;5056329;28;19956;-89
2022/08/07 15:03:40;;;;;;;;;;;;;;;;;;5056217;28;20423;-87
2022/08/07 15:06:06;;;;;;;;;;;;;;;;;;5054433;28;19913;-88
2022/08/07 15:08:34;;;;;;;;;;;;;;;;;;5071806;28;19917;-88
2022/08/07 15:11:01;;;;;;;;;;;;;;;;;;5074128;28;19932;-85
2022/08/07 15:13:28;;;;;;;;;;;;;;;;;;5054041;28;19920;-87
2022/08/07 15:15:59;;;;;;;;;;;;;;;;;;5062840;28;19917;-87
2022/08/07 15:18:32;;;;;;;;;;;;;;;;;;5056324;28;19927;-87
2022/08/07 15:21:02;;;;;;;;;;;;;;;;;;5055875;28;19916;-85
2022/08/07 15:23:30;;;;;;;;;;;;;;;;;;5052004;28;19955;-87
2022/08/07 15:25:56;;;;;;;;;;;;;;;;;;5057550;28;21460;-86
2022/08/07 15:28:25;;;;;;;;;;;;;;;;;;5052392;28;19928;-86
2022/08/07 15:30:51;;;;;;;;;;;;;;;;;;5055281;28;19971;-89
2022/08/07 15:33:18;;;;;;;;;;;;;;;;;;5053680;28;19968;-87
2022/08/07 15:35:48;;;;;;;;;;;;;;;;;;5055028;28;19917;-88
2022/08/07 15:38:14;;;;;;;;;;;;;;;;;;5055090;28;19925;-86
2022/08/07 15:40:39;;;;;;;;;;;;;;;;;;5055186;28;19917;-89
2022/08/07 15:43:11;;;;;;;;;;;;;;;;;;5053565;28;19943;-87
2022/08/07 15:45:40;;;;;;;;;;;;;;;;;;5053509;28;19917;-88
2022/08/07 15:48:09;;;;;;;;;;;;;;;;;;5053940;28;19916;-87
2022/08/07 15:50:37;;;;;;;;;;;;;;;;;;5054847;28;19921;-87
2022/08/07 15:53:14;;;;;;;;;;;;;;;;;;5054563;28;20020;-87
2022/08/07 15:55:44;;;;;;;;;;;;;;;;;;5053555;28;19917;-88
2022/08/07 15:58:12;;;;;;;;;;;;;;;;;;5054097;28;19932;-88
2022/08/07 16:00:38;;;;;;;;;;;;;;;;;;5054772;28;19946;-86
2022/08/07 16:03:08;;;;;;;;;;;;;;;;;;5053206;28;19912;-89
2022/08/07 16:05:33;;;;;;;;;;;;;;;;;;5054502;28;19917;-88
2022/08/07 16:08:25;;;;;;;;;;;;;;;;;;5054371;28;19913;-86
2022/08/07 16:11:10;;;;;;;;;;;;;;;;;;5052399;28;20337;-87
2022/08/07 16:13:57;;;;;;;;;;;;;;;;;;5054219;28;19920;-89
2022/08/07 16:16:33;;;;;;;;;;;;;;;;;;5053268;28;19917;-88
2022/08/07 16:19:07;;;;;;;;;;;;;;;;;;5054518;28;20372;-87
2022/08/07 16:21:36;;;;;;;;;;;;;;;;;;5054171;28;19921;-87
2022/08/07 16:24:20;;;;;;;;;;;;;;;;;;5054790;28;19917;-87
2022/08/07 16:26:51;;;;;;;;;;;;;;;;;;5054159;28;19924;-87
2022/08/07 16:29:35;;;;;;;;;;;;;;;;;;5054449;28;19947;-87
2022/08/07 16:32:10;;;;;;;;;;;;;;;;;;5054298;28;19924;-87
2022/08/07 16:34:38;;;;;;;;;;;;;;;;;;5054261;28;19924;-87
2022/08/07 16:37:16;;;;;;;;;;;;;;;;;;5052880;28;19924;-87
2022/08/07 16:40:10;;;;;;;;;;;;;;;;;;5054382;28;19943;-86
2022/08/07 16:42:53;;;;;;;;;;;;;;;;;;5052775;28;19917;-86
2022/08/07 16:45:37;;;;;;;;;;;;;;;;;;5053491;28;19975;-86
2022/08/07 16:48:28;;;;;;;;;;;;;;;;;;5047770;28;19921;-86
2022/08/07 16:51:03;;;;;;;;;;;;;;;;;;5047848;28;20305;-86
2022/08/07 16:53:29;;;;;;;;;;;;;;;;;;5044777;28;19976;-86
2022/08/07 16:56:02;;;;;;;;;;;;;;;;;;5043506;28;19948;-88
2022/08/07 16:58:45;;;;;;;;;;;;;;;;;;5034707;28;19963;-89
2022/08/07 17:01:26;;;;;;;;;;;;;;;;;;5045938;28;19925;-88
2022/08/07 17:04:00;;;;;;;;;;;;;;;;;;5041671;28;20004;-89
2022/08/07 17:06:35;;;;;;;;;;;;;;;;;;5046582;28;20011;-87
2022/08/07 17:09:07;;;;;;;;;;;;;;;;;;5051336;28;20372;-87
2022/08/07 17:11:40;;;;;;;;;;;;;;;;;;5056455;28;19917;-86
2022/08/07 17:14:19;;;;;;;;;;;;;;;;;;5058101;28;19970;-87